createdAt,value
2019-02-26T00:01:21.055Z,9.30
2019-02-26T00:05:38.798Z,9.20
2019-02-26T00:09:57.551Z,9.20
2019-02-26T00:14:17.720Z,9.20
2019-02-26T00:18:36.687Z,9.20
2019-02-26T00:22:55.752Z,9.10
2019-02-26T00:27:15.267Z,9.10
2019-02-26T00:31:34.894Z,9.00
2019-02-26T00:35:53.092Z,9.00
2019-02-26T00:40:12.356Z,9.00
2019-02-26T00:44:32.725Z,8.90
2019-02-26T00:48:51.529Z,8.90
2019-02-26T00:53:09.715Z,8.80
2019-02-26T00:57:29.460Z,8.80
2019-02-26T01:01:50.287Z,8.70
2019-02-26T01:06:08.301Z,8.70
2019-02-26T01:10:26.564Z,8.70
2019-02-26T01:14:46.354Z,8.60
2019-02-26T01:19:04.818Z,8.60
2019-02-26T01:23:24.255Z,8.50
2019-02-26T01:27:43.636Z,8.50
2019-02-26T01:32:02.646Z,8.40
2019-02-26T01:36:23.185Z,8.40
2019-02-26T01:40:43.618Z,8.40
2019-02-26T01:45:00.863Z,8.40
2019-02-26T01:49:21.618Z,8.30
2019-02-26T01:53:42.265Z,8.30
2019-02-26T01:58:00.503Z,8.20
2019-02-26T02:02:20.287Z,8.20
2019-02-26T02:06:39.195Z,8.20
2019-02-26T02:10:59.848Z,8.10
2019-02-26T02:15:21.628Z,8.10
2019-02-26T02:19:39.481Z,8.00
2019-02-26T02:23:57.659Z,8.00
2019-02-26T02:28:16.718Z,8.00
2019-02-26T02:32:35.878Z,8.00
2019-02-26T02:36:54.039Z,7.90
2019-02-26T02:41:13.084Z,7.90
2019-02-26T02:45:31.224Z,7.80
2019-02-26T02:49:49.708Z,7.80
2019-02-26T02:54:07.813Z,7.80
2019-02-26T02:58:26.165Z,7.70
2019-02-26T03:02:46.667Z,7.70
2019-02-26T03:07:05.345Z,7.60
2019-02-26T03:11:23.659Z,7.60
2019-02-26T03:15:41.884Z,7.60
2019-02-26T03:20:04.157Z,7.50
2019-02-26T03:24:23.485Z,7.50
2019-02-26T03:28:42.103Z,7.50
2019-02-26T03:33:04.477Z,7.40
2019-02-26T03:37:20.415Z,7.40
2019-02-26T03:41:39.083Z,7.40
2019-02-26T03:45:57.242Z,7.30
2019-02-26T03:50:16.501Z,7.20
2019-02-26T03:54:37.417Z,7.20
2019-02-26T03:58:59.577Z,7.10
2019-02-26T04:03:17.505Z,7.00
2019-02-26T04:07:36.142Z,7.00
2019-02-26T04:11:55.429Z,7.00
2019-02-26T04:16:13.629Z,6.90
2019-02-26T04:20:32.115Z,6.90
2019-02-26T04:24:52.239Z,6.90
2019-02-26T04:30:24.252Z,6.80
2019-02-26T04:35:21.317Z,6.80
2019-02-26T04:40:07.151Z,6.70
2019-02-26T04:45:33.390Z,6.70
2019-02-26T04:49:54.241Z,6.70
2019-02-26T04:54:17.485Z,6.70
2019-02-26T04:58:34.204Z,6.60
2019-02-26T05:02:52.232Z,6.70
2019-02-26T05:07:13.446Z,6.70
2019-02-26T05:11:32.683Z,6.70
2019-02-26T05:15:50.501Z,6.70
2019-02-26T05:20:12.296Z,6.70
2019-02-26T05:24:29.188Z,6.60
2019-02-26T05:28:51.535Z,6.60
2019-02-26T05:33:09.973Z,6.60
2019-02-26T05:37:29.181Z,6.60
2019-02-26T05:41:52.276Z,6.50
2019-02-26T05:46:08.188Z,6.50
2019-02-26T05:50:26.633Z,6.50
2019-02-26T05:54:45.227Z,6.40
2019-02-26T05:59:06.772Z,6.40
2019-02-26T06:03:23.698Z,6.40
2019-02-26T06:07:41.946Z,6.30
2019-02-26T06:11:59.995Z,6.30
2019-02-26T06:16:19.735Z,6.30
2019-02-26T06:20:39.815Z,6.30
2019-02-26T06:25:00.292Z,6.30
2019-02-26T06:29:22.265Z,6.20
2019-02-26T06:33:40.936Z,6.20
2019-02-26T06:38:01.976Z,6.20
2019-02-26T06:42:19.527Z,6.20
2019-02-26T06:46:38.303Z,6.20
2019-02-26T06:50:57.576Z,6.30
2019-02-26T06:55:16.536Z,6.40
2019-02-26T06:59:36.824Z,6.50
2019-02-26T07:03:56.164Z,6.50
2019-02-26T07:08:14.591Z,6.60
2019-02-26T07:12:33.129Z,6.60
2019-02-26T07:16:51.493Z,6.70
2019-02-26T07:21:09.598Z,6.70
2019-02-26T07:25:27.832Z,6.80
2019-02-26T07:29:47.936Z,6.80
2019-02-26T07:34:06.596Z,6.90
2019-02-26T07:38:27.093Z,7.00
2019-02-26T07:42:46.777Z,7.20
2019-02-26T07:47:06.717Z,7.30
2019-02-26T07:51:24.860Z,7.40
2019-02-26T07:55:43.438Z,7.50
2019-02-26T08:00:01.815Z,7.50
2019-02-26T08:04:19.998Z,7.50
2019-02-26T08:08:40.168Z,7.60
2019-02-26T08:12:59.431Z,7.70
2019-02-26T08:17:18.032Z,7.70
2019-02-26T08:21:36.340Z,7.70
2019-02-26T08:25:55.491Z,7.80
2019-02-26T08:30:20.635Z,7.90
2019-02-26T08:34:39.783Z,7.90
2019-02-26T08:38:57.335Z,8.30
2019-02-26T08:43:15.974Z,9.30
2019-02-26T08:47:34.648Z,10.70
2019-02-26T08:51:53.265Z,12.40
2019-02-26T08:56:11.617Z,13.90
2019-02-26T09:00:30.161Z,14.80
2019-02-26T09:04:48.443Z,15.10
2019-02-26T09:09:08.099Z,15.20
2019-02-26T09:13:26.532Z,15.40
2019-02-26T09:17:44.893Z,15.80
2019-02-26T09:22:03.247Z,16.10
2019-02-26T09:26:21.654Z,16.20
2019-02-26T09:30:40.815Z,16.10
2019-02-26T09:35:01.490Z,16.20
2019-02-26T09:39:19.525Z,16.70
2019-02-26T09:43:39.233Z,17.70
2019-02-26T09:47:58.415Z,18.50
2019-02-26T09:52:18.952Z,19.10
2019-02-26T09:56:36.553Z,19.60
2019-02-26T10:00:54.821Z,20.10
2019-02-26T10:05:17.722Z,20.90
2019-02-26T10:09:36.762Z,21.70
2019-02-26T10:13:54.364Z,22.50
2019-02-26T10:18:12.967Z,23.20
2019-02-26T10:22:33.206Z,23.90
2019-02-26T10:26:51.598Z,24.50
2019-02-26T10:31:09.864Z,25.00
2019-02-26T10:35:33.161Z,25.60
2019-02-26T10:39:50.220Z,26.10
2019-02-26T10:44:09.505Z,26.60
2019-02-26T10:48:28.060Z,26.90
2019-02-26T10:52:46.349Z,27.20
2019-02-26T10:57:07.683Z,27.40
2019-02-26T11:01:25.980Z,27.70
2019-02-26T11:05:48.338Z,27.80
2019-02-26T11:10:06.022Z,28.00
2019-02-26T11:14:24.621Z,28.10
2019-02-26T11:18:44.927Z,28.30
2019-02-26T11:23:04.141Z,28.50
2019-02-26T11:27:23.315Z,28.80
2019-02-26T11:31:44.782Z,29.00
2019-02-26T11:36:03.020Z,29.20
2019-02-26T11:40:24.869Z,29.40
2019-02-26T11:44:42.582Z,29.50
2019-02-26T11:49:01.247Z,29.60
2019-02-26T11:53:20.512Z,29.70
2019-02-26T11:57:39.897Z,29.70
2019-02-26T12:01:59.086Z,29.70
2019-02-26T12:06:18.403Z,29.60
2019-02-26T12:10:37.962Z,29.30
2019-02-26T12:14:56.885Z,28.80
2019-02-26T12:19:15.141Z,28.30
2019-02-26T12:23:34.475Z,27.70
2019-02-26T12:27:53.489Z,27.10
2019-02-26T12:32:11.810Z,26.60
2019-02-26T12:36:32.516Z,26.20
2019-02-26T12:40:53.455Z,25.70
2019-02-26T12:45:13.669Z,25.20
2019-02-26T12:49:35.015Z,24.70
2019-02-26T12:53:51.871Z,24.20
2019-02-26T12:58:11.259Z,23.70
2019-02-26T13:02:30.414Z,23.30
2019-02-26T13:06:51.792Z,22.90
2019-02-26T13:11:11.796Z,22.50
2019-02-26T13:15:28.625Z,22.10
2019-02-26T13:19:49.171Z,21.80
2019-02-26T13:24:12.359Z,21.60
2019-02-26T13:28:29.554Z,21.40
2019-02-26T13:32:56.021Z,21.30
2019-02-26T13:37:07.990Z,21.20
2019-02-26T13:45:46.354Z,21.00
2019-02-26T13:50:05.729Z,20.90
2019-02-26T13:54:23.925Z,20.80
2019-02-26T13:58:42.173Z,20.80
2019-02-26T14:03:00.647Z,20.70
2019-02-26T14:07:19.557Z,20.60
2019-02-26T14:11:37.981Z,20.60
2019-02-26T14:15:56.912Z,20.60
2019-02-26T14:20:15.599Z,20.50
2019-02-26T14:24:33.784Z,20.40
2019-02-26T14:28:52.373Z,20.40
2019-02-26T14:33:10.881Z,20.30
2019-02-26T14:37:29.317Z,20.30
2019-02-26T14:41:47.649Z,20.20
2019-02-26T14:46:05.924Z,20.20
2019-02-26T14:50:26.154Z,20.20
2019-02-26T14:54:44.074Z,20.10
2019-02-26T14:59:02.794Z,20.10
2019-02-26T15:03:21.014Z,20.10
2019-02-26T15:07:39.689Z,20.10
2019-02-26T15:11:57.712Z,20.10
2019-02-26T15:16:16.067Z,20.00
2019-02-26T15:20:34.245Z,19.90
2019-02-26T15:24:52.727Z,19.90
2019-02-26T15:29:11.104Z,19.90
2019-02-26T15:33:29.126Z,19.80
2019-02-26T15:37:47.353Z,19.80
2019-02-26T15:42:06.019Z,19.70
2019-02-26T15:46:24.391Z,19.60
2019-02-26T15:50:42.692Z,19.60
2019-02-26T15:55:00.990Z,19.50
2019-02-26T15:59:20.384Z,19.40
2019-02-26T16:03:38.820Z,19.40
2019-02-26T16:07:56.915Z,19.30
2019-02-26T16:12:15.179Z,19.20
2019-02-26T16:16:34.163Z,19.10
2019-02-26T16:20:52.469Z,19.00
2019-02-26T16:25:10.786Z,18.80
2019-02-26T16:29:32.839Z,18.70
2019-02-26T16:33:51.034Z,18.60
2019-02-26T16:38:11.712Z,18.50
2019-02-26T16:42:30.521Z,18.40
2019-02-26T16:46:48.792Z,18.30
2019-02-26T16:51:07.170Z,18.20
2019-02-26T16:55:26.553Z,18.10
2019-02-26T16:59:44.775Z,17.90
2019-02-26T17:04:03.127Z,17.70
2019-02-26T17:08:21.228Z,17.60
2019-02-26T17:12:39.430Z,17.40
2019-02-26T17:16:57.603Z,17.20
2019-02-26T17:21:15.983Z,17.00
2019-02-26T17:25:34.361Z,16.80
2019-02-26T17:29:52.584Z,16.60
2019-02-26T17:34:11.154Z,16.40
2019-02-26T17:38:30.390Z,16.20
2019-02-26T17:42:51.199Z,16.00
2019-02-26T17:47:09.397Z,15.90
2019-02-26T17:51:27.663Z,15.70
2019-02-26T17:55:46.962Z,15.60
2019-02-26T18:00:17.999Z,15.50
2019-02-26T18:04:38.773Z,15.40
2019-02-26T18:08:57.039Z,15.30
2019-02-26T18:13:20.463Z,15.20
2019-02-26T18:17:37.972Z,15.10
2019-02-26T18:21:58.415Z,15.00
2019-02-26T18:26:19.075Z,14.90
2019-02-26T18:30:39.762Z,14.90
2019-02-26T18:34:59.913Z,14.80
2019-02-26T18:39:22.326Z,14.70
2019-02-26T18:43:41.031Z,14.70
2019-02-26T18:47:59.244Z,14.60
2019-02-26T18:52:18.837Z,14.60
2019-02-26T18:56:39.446Z,14.50
2019-02-26T19:01:00.673Z,14.50
2019-02-26T19:05:24.275Z,14.40
2019-02-26T19:09:45.574Z,14.40
2019-02-26T19:14:11.969Z,14.30
2019-02-26T19:18:35.744Z,14.20
2019-02-26T19:22:58.868Z,14.10
2019-02-26T19:27:20.132Z,14.10
2019-02-26T19:31:42.424Z,14.00
2019-02-26T19:36:02.611Z,13.90
2019-02-26T19:40:24.437Z,13.80
2019-02-26T19:44:45.101Z,13.70
2019-02-26T19:49:06.314Z,13.60
2019-02-26T19:53:26.181Z,13.40
2019-02-26T19:57:44.975Z,13.30
2019-02-26T20:02:03.151Z,13.20
2019-02-26T20:06:23.594Z,13.20
2019-02-26T20:10:41.705Z,13.10
2019-02-26T20:15:00.320Z,13.10
2019-02-26T20:19:20.311Z,13.00
2019-02-26T20:23:41.841Z,13.00
2019-02-26T20:28:05.349Z,13.00
2019-02-26T20:32:20.610Z,12.90
2019-02-26T20:36:38.923Z,12.80
2019-02-26T20:40:57.454Z,12.70
2019-02-26T20:45:18.769Z,12.60
2019-02-26T20:49:37.660Z,12.50
2019-02-26T20:53:55.892Z,12.50
2019-02-26T20:58:14.122Z,12.40
2019-02-26T21:02:32.210Z,12.30
2019-02-26T21:06:51.402Z,12.30
2019-02-26T21:11:10.077Z,12.20
2019-02-26T21:15:28.732Z,12.10
2019-02-26T21:19:47.067Z,12.00
2019-02-26T21:24:05.289Z,12.00
2019-02-26T21:28:23.862Z,11.90
2019-02-26T21:32:42.211Z,11.80
2019-02-26T21:37:01.983Z,11.80
2019-02-26T21:41:21.057Z,11.70
2019-02-26T21:45:39.857Z,11.70
2019-02-26T21:49:58.140Z,11.60
2019-02-26T21:54:16.275Z,11.50
2019-02-26T21:58:38.905Z,11.40
2019-02-26T22:02:58.714Z,11.40
2019-02-26T22:07:19.050Z,11.30
2019-02-26T22:11:36.903Z,11.20
2019-02-26T22:15:55.926Z,11.20
2019-02-26T22:20:22.017Z,11.10
2019-02-26T22:24:37.785Z,11.00
2019-02-26T22:28:55.518Z,10.90
2019-02-26T22:33:13.705Z,10.80
2019-02-26T22:37:32.190Z,10.70
2019-02-26T22:41:50.331Z,10.60
2019-02-26T22:46:08.626Z,10.60
2019-02-26T22:50:29.049Z,10.50
2019-02-26T22:54:48.261Z,10.40
2019-02-26T22:59:08.021Z,10.40
2019-02-26T23:03:26.490Z,10.30
2019-02-26T23:07:44.712Z,10.30
2019-02-26T23:12:05.108Z,10.20
2019-02-26T23:16:23.009Z,10.20
2019-02-26T23:20:42.808Z,10.10
2019-02-26T23:25:01.663Z,10.10
2019-02-26T23:29:21.786Z,10.00
2019-02-26T23:33:41.036Z,10.00
2019-02-26T23:38:00.021Z,10.00
2019-02-26T23:42:18.271Z,10.00
2019-02-26T23:46:36.992Z,10.00
2019-02-26T23:50:55.258Z,9.90
2019-02-26T23:55:14.054Z,9.90
2019-02-26T23:59:34.870Z,9.80
